Jiggs, Nevada
Current Conditions -  °F | °C
As of 11:56 PM on Thursday 30 Oct 2014 (Local Time) from KEKO Reporting Station
Clear Clear  
Wind Chill: 45°   Ceiling: Unl
Heat Index: 47°   Visibility: 10mi
Dew Point: 20°   Wind: 5mph
Humidity: 34%   Direction: 80°E
Pressure: 29.99"   Gusts: NA
Location:  40.5527°N, 115.577°W
Report Text: KEKO 310656Z AUTO 08004KT 10SM CLR 08/M07 A2999 RMK AO2 SLP129 T00831067
Loading
Personal Weather Stations






























Interactive Weather Map
Tropical Storm Tracking
New forecast layout! Learn more

10-Day Weather Forecast

Advertisements
Track Severe Weather on mobile